Stafford, Texas
Current Conditions -  °F | °C
As of 7:53 AM on Monday 26 Jan 2015 (Local Time) from KSGR Reporting Station
Clear Clear  
Wind Chill: 40°   Ceiling: Unl
Heat Index: 43°   Visibility: 10mi
Dew Point: 34°   Wind: 5mph
Humidity: 71%   Direction: 280°W
Pressure: 30.26"   Gusts: NA
Location:  29.61°N, 95.55°W
Report Text: KSGR 261353Z 28004KT 10SM CLR 06/01 A3026 RMK AO2 SLP248 T00610011
Loading
Personal Weather Stations






























Interactive Weather Map New forecast layout! Learn more

10-Day Weather Forecast

Advertisements
Track Severe Weather on mobile